createdAt,value
2023-05-25T00:00:41.833Z,2.20
2023-05-25T00:01:49.251Z,2.40
2023-05-25T00:02:54.537Z,2.30
2023-05-25T00:03:56.333Z,2.23
2023-05-25T00:05:01.076Z,2.50
2023-05-25T00:06:02.667Z,2.37
2023-05-25T00:07:04.428Z,2.20
2023-05-25T00:08:07.923Z,2.53
2023-05-25T00:09:09.845Z,2.63
2023-05-25T00:10:11.656Z,2.07
2023-05-25T00:11:13.889Z,2.73
2023-05-25T00:12:16.460Z,2.93
2023-05-25T00:13:18.613Z,2.83
2023-05-25T00:14:20.624Z,3.10
2023-05-25T00:15:22.129Z,2.40
2023-05-25T00:16:23.655Z,2.50
2023-05-25T00:17:25.233Z,2.50
2023-05-25T00:18:27.115Z,2.50
2023-05-25T00:19:28.845Z,2.60
2023-05-25T00:20:30.421Z,2.10
2023-05-25T00:21:34.190Z,2.70
2023-05-25T00:22:39.972Z,2.30
2023-05-25T00:23:42.628Z,2.80
2023-05-25T00:24:44.140Z,1.70
2023-05-25T00:25:45.967Z,2.17
2023-05-25T00:26:48.116Z,2.00
2023-05-25T00:27:49.549Z,2.10
2023-05-25T00:28:51.203Z,2.60
2023-05-25T00:29:52.697Z,2.17
2023-05-25T00:30:54.519Z,2.40
2023-05-25T00:31:56.834Z,2.10
2023-05-25T00:32:59.881Z,2.17
2023-05-25T00:34:01.789Z,1.87
2023-05-25T00:35:03.309Z,2.20
2023-05-25T00:36:05.303Z,2.30
2023-05-25T00:37:06.993Z,2.27
2023-05-25T00:38:22.079Z,2.50
2023-05-25T00:39:23.674Z,1.70
2023-05-25T00:40:25.140Z,1.80
2023-05-25T00:41:28.321Z,2.23
2023-05-25T00:42:32.366Z,2.50
2023-05-25T00:43:33.907Z,2.90
2023-05-25T00:44:35.456Z,2.13
2023-05-25T00:45:37.316Z,1.90
2023-05-25T00:46:39.335Z,2.30
2023-05-25T00:47:43.320Z,2.77
2023-05-25T00:48:45.755Z,2.57
2023-05-25T00:49:47.903Z,2.10
2023-05-25T00:50:51.577Z,2.57
2023-05-25T00:51:53.249Z,2.10
2023-05-25T00:52:54.745Z,2.37
2023-05-25T00:53:56.696Z,2.23
2023-05-25T00:55:01.202Z,2.40
2023-05-25T00:56:16.808Z,2.00
2023-05-25T00:57:21.133Z,2.20
2023-05-25T00:58:26.995Z,3.00
2023-05-25T00:59:41.865Z,2.03
2023-05-25T01:00:46.839Z,3.27
2023-05-25T01:01:53.845Z,2.40
2023-05-25T01:02:59.375Z,2.33
2023-05-25T01:04:02.772Z,2.07
2023-05-25T01:05:08.900Z,2.70
2023-05-25T01:06:14.381Z,2.17
2023-05-25T01:07:27.073Z,2.07
2023-05-25T01:08:29.248Z,2.00
2023-05-25T01:09:34.608Z,2.23
2023-05-25T01:10:38.777Z,2.80
2023-05-25T01:11:45.798Z,2.10
2023-05-25T01:12:51.428Z,2.37
2023-05-25T01:13:54.370Z,2.57
2023-05-25T01:14:57.355Z,2.20
2023-05-25T01:16:00.574Z,2.47
2023-05-25T01:17:03.350Z,2.57
2023-05-25T01:18:05.359Z,2.43
2023-05-25T01:19:07.034Z,1.70
2023-05-25T01:20:11.682Z,1.90
2023-05-25T01:21:29.853Z,2.30
2023-05-25T01:22:40.450Z,2.70
2023-05-25T01:23:50.944Z,3.00
2023-05-25T01:24:57.736Z,2.40
2023-05-25T01:26:02.617Z,3.23
2023-05-25T01:27:24.637Z,2.30
2023-05-25T01:28:30.849Z,2.40
2023-05-25T01:29:35.073Z,2.47
2023-05-25T01:30:42.399Z,1.93
2023-05-25T01:31:45.537Z,2.40
2023-05-25T01:32:49.307Z,2.30
2023-05-25T01:33:52.599Z,1.77
2023-05-25T01:34:56.838Z,1.80
2023-05-25T01:35:59.746Z,2.50
2023-05-25T01:37:01.711Z,2.87
2023-05-25T01:38:03.420Z,2.57
2023-05-25T01:39:06.803Z,2.73
2023-05-25T01:40:09.238Z,2.37
2023-05-25T01:41:10.933Z,2.40
2023-05-25T01:42:12.857Z,2.33
2023-05-25T01:43:14.868Z,2.30
2023-05-25T01:44:16.382Z,2.80
2023-05-25T01:45:18.161Z,2.43
2023-05-25T01:46:22.458Z,2.00
2023-05-25T01:47:47.505Z,2.10
2023-05-25T01:49:28.449Z,2.20
2023-05-25T01:50:55.719Z,2.37
2023-05-25T01:52:23.860Z,2.20
2023-05-25T01:53:56.797Z,2.33
2023-05-25T01:55:06.665Z,2.20
2023-05-25T01:56:11.680Z,2.47
2023-05-25T01:57:16.799Z,2.40
2023-05-25T01:58:21.150Z,2.37
2023-05-25T01:59:24.690Z,2.20
2023-05-25T02:00:31.777Z,2.27
2023-05-25T02:01:35.124Z,1.87
2023-05-25T02:02:38.403Z,2.23
2023-05-25T02:03:41.628Z,2.17
2023-05-25T02:04:45.163Z,2.27
2023-05-25T02:05:47.479Z,2.10
2023-05-25T02:06:51.504Z,2.20
2023-05-25T02:07:54.005Z,1.90
2023-05-25T02:08:55.440Z,2.67
2023-05-25T02:09:56.937Z,2.13
2023-05-25T02:10:58.394Z,2.30
2023-05-25T02:11:59.894Z,2.10
2023-05-25T02:13:01.497Z,2.20
2023-05-25T02:14:03.151Z,2.20
2023-05-25T02:15:05.857Z,2.10
2023-05-25T02:16:08.190Z,2.40
2023-05-25T02:17:12.778Z,2.23
2023-05-25T02:18:14.259Z,2.10
2023-05-25T02:19:15.983Z,2.10
2023-05-25T02:20:17.540Z,1.87
2023-05-25T02:21:19.265Z,2.47
2023-05-25T02:22:21.944Z,2.53
2023-05-25T02:23:23.370Z,2.43
2023-05-25T02:24:25.746Z,2.13
2023-05-25T02:25:27.899Z,2.30
2023-05-25T02:26:29.746Z,2.07
2023-05-25T02:27:33.874Z,2.30
2023-05-25T02:28:35.461Z,2.90
2023-05-25T02:29:37.263Z,2.30
2023-05-25T02:30:39.440Z,2.67
2023-05-25T02:31:41.063Z,2.50
2023-05-25T02:32:43.699Z,2.70
2023-05-25T02:33:45.856Z,3.33
2023-05-25T02:34:48.267Z,2.40
2023-05-25T02:35:50.338Z,2.20
2023-05-25T02:36:51.856Z,3.50
2023-05-25T02:37:53.732Z,2.07
2023-05-25T02:38:55.485Z,2.00
2023-05-25T02:39:57.573Z,2.30
2023-05-25T02:40:59.204Z,2.30
2023-05-25T02:42:01.339Z,2.30
2023-05-25T02:43:02.853Z,2.57
2023-05-25T02:44:04.597Z,2.43
2023-05-25T02:45:10.771Z,2.17
2023-05-25T02:46:14.021Z,2.30
2023-05-25T02:47:16.475Z,1.77
2023-05-25T02:48:18.025Z,2.67
2023-05-25T02:49:19.499Z,2.30
2023-05-25T02:50:22.711Z,3.00
2023-05-25T02:51:28.296Z,2.67
2023-05-25T02:52:35.341Z,2.33
2023-05-25T02:53:37.069Z,2.00
2023-05-25T02:54:39.022Z,2.10
2023-05-25T02:55:43.484Z,3.17
2023-05-25T02:56:50.612Z,2.70
2023-05-25T02:57:53.675Z,2.30
2023-05-25T02:59:11.281Z,2.43
2023-05-25T03:00:13.555Z,2.47
2023-05-25T03:01:19.033Z,2.53
2023-05-25T03:02:29.013Z,2.83
2023-05-25T03:03:31.006Z,3.07
2023-05-25T03:04:34.005Z,2.57
2023-05-25T03:05:35.919Z,2.37
2023-05-25T03:06:37.934Z,2.23
2023-05-25T03:07:44.779Z,2.30
2023-05-25T03:08:46.329Z,2.10
2023-05-25T03:09:48.091Z,2.93
2023-05-25T03:10:50.124Z,2.70
2023-05-25T03:11:52.230Z,2.50
2023-05-25T03:12:55.636Z,2.30
2023-05-25T03:13:57.635Z,2.73
2023-05-25T03:14:59.774Z,2.40
2023-05-25T03:16:01.454Z,2.33
2023-05-25T03:17:03.643Z,3.03
2023-05-25T03:18:05.577Z,1.90
2023-05-25T03:19:11.937Z,2.93
2023-05-25T03:20:15.552Z,2.20
2023-05-25T03:21:22.353Z,2.40
2023-05-25T03:22:25.120Z,2.53
2023-05-25T03:23:26.561Z,2.37
2023-05-25T03:24:30.873Z,2.43
2023-05-25T03:25:35.518Z,2.47
2023-05-25T03:26:38.684Z,2.67
2023-05-25T03:27:41.509Z,2.63
2023-05-25T03:28:43.830Z,2.50
2023-05-25T03:29:50.328Z,2.60
2023-05-25T03:30:52.020Z,2.30
2023-05-25T03:31:53.761Z,1.90
2023-05-25T03:32:58.439Z,3.03
2023-05-25T03:34:06.286Z,2.40
2023-05-25T03:35:11.130Z,2.10
2023-05-25T03:36:13.735Z,2.27
2023-05-25T03:37:16.086Z,2.73
2023-05-25T03:38:18.131Z,2.47
2023-05-25T03:39:22.169Z,2.00
2023-05-25T03:40:25.056Z,2.50
2023-05-25T03:41:27.097Z,2.43
2023-05-25T03:42:28.999Z,2.70
2023-05-25T03:43:31.429Z,2.30
2023-05-25T03:44:32.889Z,2.57
2023-05-25T03:45:34.370Z,2.40
2023-05-25T03:46:35.953Z,2.30
2023-05-25T03:47:37.650Z,3.00
2023-05-25T03:48:39.129Z,2.60
2023-05-25T03:49:41.203Z,2.57
2023-05-25T03:50:42.802Z,2.30
2023-05-25T03:51:44.567Z,1.93
2023-05-25T03:52:47.649Z,2.80
2023-05-25T03:53:49.058Z,2.50
2023-05-25T03:54:51.153Z,2.20
2023-05-25T03:55:52.712Z,2.40
2023-05-25T03:56:54.249Z,2.23
2023-05-25T03:57:55.692Z,2.60
2023-05-25T03:58:57.209Z,3.07
2023-05-25T03:59:58.834Z,2.27
2023-05-25T04:01:01.161Z,2.07
2023-05-25T04:02:04.118Z,2.50
2023-05-25T04:03:07.119Z,2.00
2023-05-25T04:04:08.783Z,3.20
2023-05-25T04:05:11.216Z,2.67
2023-05-25T04:06:12.698Z,2.37
2023-05-25T04:07:14.127Z,2.50
2023-05-25T04:08:22.514Z,2.00
2023-05-25T04:09:24.255Z,2.43
2023-05-25T04:10:26.007Z,2.80
2023-05-25T04:11:29.143Z,2.30
2023-05-25T04:12:30.708Z,2.47
2023-05-25T04:13:35.840Z,2.23
2023-05-25T04:14:37.686Z,2.50
2023-05-25T04:15:39.248Z,2.97
2023-05-25T04:16:47.824Z,2.50
2023-05-25T04:17:50.610Z,2.33
2023-05-25T04:18:52.629Z,2.20
2023-05-25T04:19:56.496Z,2.67
2023-05-25T04:20:58.309Z,2.90
2023-05-25T04:21:59.836Z,2.53
2023-05-25T04:23:02.186Z,2.40
2023-05-25T04:24:04.606Z,2.00
2023-05-25T04:25:07.984Z,1.90
2023-05-25T04:26:10.395Z,2.10
2023-05-25T04:27:14.481Z,3.17
2023-05-25T04:28:17.765Z,2.20
2023-05-25T04:29:38.398Z,2.73
2023-05-25T04:30:57.239Z,2.60
2023-05-25T04:32:23.847Z,2.00
2023-05-25T04:33:40.729Z,2.47
2023-05-25T04:34:59.098Z,2.40
2023-05-25T04:36:11.371Z,1.97
2023-05-25T04:37:12.936Z,2.07
2023-05-25T04:38:17.603Z,2.23
2023-05-25T04:39:19.115Z,3.50
2023-05-25T04:40:28.031Z,2.13
2023-05-25T04:41:29.978Z,2.00
2023-05-25T04:42:35.008Z,2.43
2023-05-25T04:43:36.541Z,2.20
2023-05-25T04:44:39.970Z,2.60
2023-05-25T04:45:42.858Z,2.80
2023-05-25T04:46:45.125Z,2.33
2023-05-25T04:47:53.014Z,2.50
2023-05-25T04:48:54.992Z,2.80
2023-05-25T04:49:56.806Z,2.13
2023-05-25T04:50:58.292Z,2.33
2023-05-25T04:51:59.870Z,2.73
2023-05-25T04:53:03.529Z,2.80
2023-05-25T04:54:06.284Z,2.47
2023-05-25T04:55:08.717Z,2.30
2023-05-25T04:56:12.932Z,1.80
2023-05-25T04:57:16.101Z,3.10
2023-05-25T04:58:17.621Z,2.40
2023-05-25T04:59:19.545Z,2.23
2023-05-25T05:00:22.002Z,2.37
2023-05-25T05:01:26.447Z,2.33
2023-05-25T05:02:30.821Z,2.10
2023-05-25T05:03:32.994Z,2.20
2023-05-25T05:04:37.306Z,2.33
2023-05-25T05:05:39.653Z,2.70
2023-05-25T05:06:44.678Z,3.30
2023-05-25T05:07:53.928Z,2.90
2023-05-25T05:08:55.937Z,2.97
2023-05-25T05:09:57.462Z,2.47
2023-05-25T05:10:59.770Z,2.50
2023-05-25T05:12:01.809Z,2.17
2023-05-25T05:13:05.136Z,2.20
2023-05-25T05:14:07.219Z,3.13
2023-05-25T05:15:09.076Z,3.03
2023-05-25T05:16:10.758Z,2.93
2023-05-25T05:17:12.845Z,2.23
2023-05-25T05:18:14.504Z,2.73
2023-05-25T05:19:16.204Z,2.50
2023-05-25T05:20:17.827Z,2.47
2023-05-25T05:21:22.781Z,3.00
2023-05-25T05:22:25.854Z,2.67
2023-05-25T05:23:27.312Z,2.60
2023-05-25T05:24:29.260Z,2.67
2023-05-25T05:25:30.829Z,2.40
2023-05-25T05:26:41.206Z,2.77
2023-05-25T05:27:49.715Z,2.60
2023-05-25T05:28:57.432Z,3.27
2023-05-25T05:29:59.262Z,3.07
2023-05-25T05:31:00.863Z,2.53
2023-05-25T05:32:02.390Z,2.37
2023-05-25T05:33:04.783Z,2.90
2023-05-25T05:34:12.031Z,2.90
2023-05-25T05:35:13.819Z,2.87
2023-05-25T05:36:18.115Z,2.60
2023-05-25T05:37:19.648Z,3.13
2023-05-25T05:38:21.446Z,2.13
2023-05-25T05:39:23.072Z,2.90
2023-05-25T05:40:26.183Z,2.30
2023-05-25T05:41:27.869Z,2.57
2023-05-25T05:42:32.709Z,2.70
2023-05-25T05:43:34.230Z,2.60
2023-05-25T05:44:36.071Z,2.83
2023-05-25T05:45:37.639Z,3.03
2023-05-25T05:46:39.368Z,3.53
2023-05-25T05:47:41.218Z,2.80
2023-05-25T05:48:42.935Z,2.90
2023-05-25T05:49:44.824Z,2.80
2023-05-25T05:50:46.371Z,4.63
2023-05-25T05:51:48.482Z,2.80
2023-05-25T05:52:49.994Z,3.00
2023-05-25T05:53:51.955Z,3.37
2023-05-25T05:54:53.464Z,2.70
2023-05-25T05:55:59.051Z,2.80
2023-05-25T05:57:01.455Z,2.40
2023-05-25T05:58:02.991Z,2.60
2023-05-25T05:59:04.595Z,2.50
2023-05-25T06:00:07.095Z,2.70
2023-05-25T06:01:19.532Z,2.60
2023-05-25T06:02:21.134Z,3.43
2023-05-25T06:03:23.663Z,3.10
2023-05-25T06:04:28.936Z,2.60
2023-05-25T06:05:31.320Z,2.83
2023-05-25T06:06:34.991Z,3.40
2023-05-25T06:07:38.046Z,2.23
2023-05-25T06:08:41.274Z,3.20
2023-05-25T06:09:42.698Z,2.50
2023-05-25T06:10:44.309Z,2.80
2023-05-25T06:11:47.381Z,2.87
2023-05-25T06:12:49.282Z,2.53
2023-05-25T06:13:50.950Z,2.50
2023-05-25T06:14:52.944Z,3.10
2023-05-25T06:15:54.447Z,2.63
2023-05-25T06:16:58.745Z,2.00
2023-05-25T06:18:00.505Z,2.63
2023-05-25T06:19:02.844Z,2.77
2023-05-25T06:20:05.422Z,3.50
2023-05-25T06:21:07.281Z,2.80
2023-05-25T06:22:08.783Z,3.30
2023-05-25T06:23:12.424Z,2.63
2023-05-25T06:24:15.660Z,2.60
2023-05-25T06:25:17.617Z,3.07
2023-05-25T06:26:19.589Z,2.50
2023-05-25T06:27:23.567Z,2.27
2023-05-25T06:28:25.099Z,2.40
2023-05-25T06:29:27.054Z,2.80
2023-05-25T06:30:28.942Z,3.10
2023-05-25T06:31:31.247Z,2.40
2023-05-25T06:32:33.126Z,2.70
2023-05-25T06:33:35.390Z,2.47
2023-05-25T06:34:38.239Z,2.50
2023-05-25T06:35:39.919Z,2.37
2023-05-25T06:36:42.009Z,3.23
2023-05-25T06:37:48.703Z,2.50
2023-05-25T06:38:52.172Z,2.97
2023-05-25T06:39:57.601Z,3.60
2023-05-25T06:41:03.314Z,2.40
2023-05-25T06:42:05.240Z,2.90
2023-05-25T06:43:08.633Z,3.07
2023-05-25T06:44:40.481Z,3.03
2023-05-25T06:45:43.985Z,3.27
2023-05-25T06:46:46.027Z,3.57
2023-05-25T06:47:49.516Z,2.53
2023-05-25T06:48:51.554Z,3.20
2023-05-25T06:49:53.683Z,2.67
2023-05-25T06:50:55.112Z,2.67
2023-05-25T06:51:56.565Z,2.53
2023-05-25T06:53:00.354Z,3.20
2023-05-25T06:54:02.207Z,3.50
2023-05-25T06:55:04.057Z,4.00
2023-05-25T06:56:05.905Z,2.67
2023-05-25T06:57:07.997Z,3.53
2023-05-25T06:58:09.498Z,2.60
2023-05-25T06:59:11.359Z,2.60
2023-05-25T07:00:13.706Z,3.03
2023-05-25T07:01:15.881Z,3.70
2023-05-25T07:02:19.070Z,2.33
2023-05-25T07:03:20.935Z,2.57
2023-05-25T07:04:23.273Z,2.70
2023-05-25T07:05:25.002Z,2.90
2023-05-25T07:06:26.658Z,2.87
2023-05-25T07:07:28.281Z,2.40
2023-05-25T07:08:30.085Z,3.07
2023-05-25T07:09:31.629Z,3.10
2023-05-25T07:10:34.356Z,2.63
2023-05-25T07:11:35.877Z,3.30
2023-05-25T07:12:37.979Z,2.53
2023-05-25T07:13:39.637Z,2.70
2023-05-25T07:14:41.140Z,2.80
2023-05-25T07:15:42.866Z,2.50
2023-05-25T07:16:48.169Z,2.73
2023-05-25T07:17:50.208Z,2.93
2023-05-25T07:18:51.783Z,2.70
2023-05-25T07:19:53.301Z,3.13
2023-05-25T07:20:54.780Z,2.60
2023-05-25T07:21:56.247Z,2.87
2023-05-25T07:22:57.686Z,2.23
2023-05-25T07:23:59.172Z,2.40
2023-05-25T07:25:00.844Z,3.00
2023-05-25T07:26:05.069Z,2.83
2023-05-25T07:27:08.275Z,3.30
2023-05-25T07:28:09.707Z,2.70
2023-05-25T07:29:12.389Z,3.20
2023-05-25T07:30:14.177Z,3.00
2023-05-25T07:31:16.366Z,3.10
2023-05-25T07:32:18.272Z,3.07
2023-05-25T07:33:19.741Z,3.30
2023-05-25T07:34:21.386Z,2.80
2023-05-25T07:35:22.877Z,3.10
2023-05-25T07:36:27.200Z,3.37
2023-05-25T07:37:28.901Z,2.60
2023-05-25T07:38:30.977Z,3.00
2023-05-25T07:39:32.456Z,2.87
2023-05-25T07:40:34.190Z,2.30
2023-05-25T07:41:35.779Z,2.70
2023-05-25T07:42:37.260Z,3.10
2023-05-25T07:43:39.124Z,3.93
2023-05-25T07:44:40.611Z,2.90
2023-05-25T07:45:42.801Z,3.03
2023-05-25T07:46:44.721Z,2.83
2023-05-25T07:47:46.258Z,2.90
2023-05-25T07:48:48.156Z,3.97
2023-05-25T07:49:49.906Z,3.30
2023-05-25T07:50:51.558Z,2.90
2023-05-25T07:51:52.979Z,3.30
2023-05-25T07:52:54.519Z,3.00
2023-05-25T07:53:57.118Z,3.63
2023-05-25T07:54:58.764Z,2.67
2023-05-25T07:56:00.419Z,3.07
2023-05-25T07:57:01.847Z,3.00
2023-05-25T07:58:03.864Z,2.80
2023-05-25T07:59:06.099Z,2.87
2023-05-25T08:00:09.334Z,2.87
2023-05-25T08:01:17.358Z,3.60
2023-05-25T08:02:19.042Z,2.50
2023-05-25T08:03:31.733Z,2.60
2023-05-25T08:04:41.898Z,2.90
2023-05-25T08:05:44.357Z,3.07
2023-05-25T08:06:46.353Z,2.93
2023-05-25T08:07:47.752Z,2.80
2023-05-25T08:08:50.053Z,3.10
2023-05-25T08:09:52.112Z,2.83
2023-05-25T08:10:53.617Z,3.00
2023-05-25T08:12:07.669Z,3.50
2023-05-25T08:13:16.691Z,2.90
2023-05-25T08:14:18.189Z,2.87
2023-05-25T08:15:19.669Z,2.60
2023-05-25T08:16:21.835Z,2.93
2023-05-25T08:17:23.634Z,3.03
2023-05-25T08:18:25.218Z,3.53
2023-05-25T08:19:27.072Z,3.23
2023-05-25T08:20:29.008Z,3.17
2023-05-25T08:21:31.855Z,3.47
2023-05-25T08:22:36.072Z,3.10
2023-05-25T08:23:42.542Z,2.47
2023-05-25T08:24:44.093Z,3.40
2023-05-25T08:25:45.778Z,2.50
2023-05-25T08:26:54.754Z,2.90
2023-05-25T08:27:57.357Z,2.60
2023-05-25T08:28:58.954Z,3.10
2023-05-25T08:30:00.581Z,2.90
2023-05-25T08:31:01.992Z,2.97
2023-05-25T08:32:03.884Z,2.97
2023-05-25T08:33:06.866Z,2.93
2023-05-25T08:34:08.449Z,2.80
2023-05-25T08:35:10.106Z,2.97
2023-05-25T08:36:11.905Z,3.30
2023-05-25T08:37:13.864Z,3.17
2023-05-25T08:38:15.481Z,2.83
2023-05-25T08:39:17.205Z,2.70
2023-05-25T08:40:22.537Z,2.97
2023-05-25T08:41:24.251Z,2.73
2023-05-25T08:42:25.906Z,3.43
2023-05-25T08:43:27.950Z,2.43
2023-05-25T08:44:30.640Z,2.87
2023-05-25T08:45:35.281Z,2.93
2023-05-25T08:46:38.700Z,2.90
2023-05-25T08:47:44.824Z,3.60
2023-05-25T08:48:48.596Z,3.33
2023-05-25T08:49:51.353Z,2.93
2023-05-25T08:50:54.054Z,3.00
2023-05-25T08:51:55.955Z,3.00
2023-05-25T08:52:59.628Z,3.57
2023-05-25T08:54:07.946Z,4.20
2023-05-25T08:55:10.934Z,3.17
2023-05-25T08:56:25.274Z,2.80
2023-05-25T08:57:41.232Z,3.13
2023-05-25T08:59:04.848Z,2.80
2023-05-25T09:00:11.847Z,3.50
2023-05-25T09:01:18.308Z,3.23
2023-05-25T09:02:27.080Z,3.20
2023-05-25T09:03:31.210Z,3.13
2023-05-25T09:04:34.583Z,3.50
2023-05-25T09:05:38.034Z,2.87
2023-05-25T09:06:40.583Z,2.80
2023-05-25T09:07:43.744Z,2.83
2023-05-25T09:08:47.253Z,3.30
2023-05-25T09:09:49.330Z,3.30
2023-05-25T09:10:52.574Z,3.60
2023-05-25T09:11:55.407Z,3.50
2023-05-25T09:12:57.711Z,3.47
2023-05-25T09:14:02.376Z,3.60
2023-05-25T09:15:04.215Z,2.77
2023-05-25T09:16:06.991Z,4.23
2023-05-25T09:17:08.585Z,3.50
2023-05-25T09:18:12.257Z,3.80
2023-05-25T09:19:16.871Z,3.23
2023-05-25T09:20:20.825Z,3.77
2023-05-25T09:21:22.737Z,4.00
2023-05-25T09:22:24.305Z,5.03
2023-05-25T09:23:26.469Z,3.83
2023-05-25T09:24:28.468Z,4.07
2023-05-25T09:25:31.832Z,3.60
2023-05-25T09:26:34.509Z,4.00
2023-05-25T09:27:39.597Z,3.90
2023-05-25T09:28:48.402Z,3.50
2023-05-25T09:29:50.931Z,3.00
2023-05-25T09:30:53.507Z,4.13
2023-05-25T09:31:56.577Z,3.70
2023-05-25T09:33:09.777Z,4.53
2023-05-25T09:34:12.932Z,3.07
2023-05-25T09:35:15.457Z,3.40
2023-05-25T09:36:17.951Z,3.47
2023-05-25T09:37:20.159Z,4.20
2023-05-25T09:38:22.721Z,3.90
2023-05-25T09:39:25.988Z,3.70
2023-05-25T09:40:27.894Z,3.13
2023-05-25T09:41:30.155Z,3.90
2023-05-25T09:42:33.177Z,3.90
2023-05-25T09:43:44.584Z,3.20
2023-05-25T09:44:50.672Z,3.50
2023-05-25T09:45:53.231Z,3.53
2023-05-25T09:46:54.776Z,3.73
2023-05-25T09:47:57.507Z,3.80
2023-05-25T09:48:59.997Z,3.63
2023-05-25T09:50:02.740Z,3.07
2023-05-25T09:51:07.494Z,2.93
2023-05-25T09:52:08.986Z,3.70
2023-05-25T09:53:11.751Z,3.30
2023-05-25T09:54:13.815Z,3.63
2023-05-25T09:55:15.812Z,3.60
2023-05-25T09:56:17.888Z,3.43
2023-05-25T09:57:20.969Z,3.93
2023-05-25T09:58:27.163Z,3.90
2023-05-25T09:59:28.811Z,3.97
2023-05-25T10:00:30.466Z,3.73
2023-05-25T10:01:33.748Z,3.83
2023-05-25T10:02:36.222Z,3.40
2023-05-25T10:05:12.767Z,3.83
2023-05-25T10:06:17.853Z,3.27
2023-05-25T10:07:19.886Z,3.40
2023-05-25T10:08:22.028Z,4.57
2023-05-25T10:09:27.458Z,3.43
2023-05-25T10:10:29.677Z,4.00
2023-05-25T10:11:33.830Z,3.83
2023-05-25T10:12:35.986Z,3.37
2023-05-25T10:13:38.080Z,4.90
2023-05-25T10:14:40.619Z,2.87
2023-05-25T10:15:45.051Z,3.57
2023-05-25T10:16:50.431Z,2.97
2023-05-25T10:17:58.405Z,3.37
2023-05-25T10:19:25.963Z,3.57
2023-05-25T10:22:05.322Z,3.40
2023-05-25T10:23:20.582Z,3.20
2023-05-25T10:24:31.423Z,3.30
2023-05-25T10:25:38.032Z,3.10
2023-05-25T10:26:42.465Z,3.50
2023-05-25T10:28:02.122Z,3.37
2023-05-25T10:29:04.695Z,3.33
2023-05-25T10:30:08.565Z,4.00
2023-05-25T10:31:10.848Z,3.80
2023-05-25T10:32:14.812Z,3.60
2023-05-25T10:33:17.260Z,2.90
2023-05-25T10:34:20.339Z,4.20
2023-05-25T10:35:22.774Z,3.10
2023-05-25T10:36:26.502Z,4.00
2023-05-25T10:37:29.348Z,3.10
2023-05-25T10:38:32.035Z,3.63
2023-05-25T10:39:34.958Z,3.07
2023-05-25T10:40:37.911Z,4.20
2023-05-25T10:41:39.581Z,4.03
2023-05-25T10:42:41.808Z,3.17
2023-05-25T10:43:43.429Z,3.50
2023-05-25T10:44:46.035Z,3.70
2023-05-25T10:45:48.562Z,3.63
2023-05-25T10:46:50.675Z,3.87
2023-05-25T10:47:52.489Z,3.80
2023-05-25T10:49:00.589Z,3.50
2023-05-25T10:50:03.464Z,3.40
2023-05-25T10:51:11.120Z,3.87
2023-05-25T10:52:23.125Z,3.50
2023-05-25T10:53:25.840Z,3.80
2023-05-25T10:54:34.920Z,4.23
2023-05-25T10:55:52.544Z,3.50
2023-05-25T10:57:19.299Z,3.70
2023-05-25T10:58:22.441Z,4.03
2023-05-25T10:59:28.526Z,3.37
2023-05-25T11:00:31.771Z,3.53
2023-05-25T11:01:33.866Z,4.00
2023-05-25T11:02:56.272Z,3.70
2023-05-25T11:04:18.334Z,3.57
2023-05-25T11:05:35.952Z,4.53
2023-05-25T11:06:37.893Z,4.17
2023-05-25T11:07:56.088Z,3.87
2023-05-25T11:08:59.442Z,3.40
2023-05-25T11:10:01.451Z,4.07
2023-05-25T11:11:04.333Z,3.57
2023-05-25T11:12:06.722Z,3.93
2023-05-25T11:13:23.667Z,3.50
2023-05-25T11:14:30.310Z,3.77
2023-05-25T11:15:32.657Z,3.37
2023-05-25T11:16:36.279Z,4.13
2023-05-25T11:18:00.237Z,3.97
2023-05-25T11:19:02.346Z,4.27
2023-05-25T11:20:06.413Z,4.33
2023-05-25T11:21:43.832Z,4.00
2023-05-25T11:22:45.936Z,3.83
2023-05-25T11:24:04.431Z,3.50
2023-05-25T11:25:39.916Z,3.80
2023-05-25T11:26:56.891Z,3.70
2023-05-25T11:28:04.566Z,3.80
2023-05-25T11:29:13.786Z,3.40
2023-05-25T11:30:18.395Z,4.03
2023-05-25T11:31:37.831Z,4.40
2023-05-25T11:32:50.707Z,3.73
2023-05-25T11:33:57.396Z,3.60
2023-05-25T11:34:59.682Z,4.40
2023-05-25T11:36:01.558Z,3.60
2023-05-25T11:37:03.906Z,3.90
2023-05-25T11:38:08.853Z,3.80
2023-05-25T11:39:20.505Z,3.50
2023-05-25T11:40:24.025Z,3.63
2023-05-25T11:41:26.158Z,3.93
2023-05-25T11:42:29.270Z,4.57
2023-05-25T11:43:34.086Z,4.15
2023-05-25T11:44:36.819Z,3.65
2023-05-25T11:45:39.238Z,4.20
2023-05-25T11:46:43.741Z,3.90
2023-05-25T11:47:45.809Z,4.22
2023-05-25T11:48:53.970Z,3.75
2023-05-25T11:49:56.881Z,4.18
2023-05-25T11:51:06.145Z,3.85
2023-05-25T11:52:08.183Z,4.10
2023-05-25T11:53:10.846Z,3.78
2023-05-25T11:54:22.004Z,4.00
2023-05-25T11:55:23.862Z,4.00
2023-05-25T11:56:35.138Z,3.80
2023-05-25T11:57:39.148Z,3.75
2023-05-25T11:58:41.520Z,3.53
2023-05-25T11:59:54.286Z,3.97
2023-05-25T12:00:55.799Z,4.15
2023-05-25T12:01:58.107Z,4.53
2023-05-25T12:02:59.722Z,3.80
2023-05-25T12:04:09.467Z,3.80
2023-05-25T12:05:11.853Z,4.22
2023-05-25T12:06:34.321Z,3.80
2023-05-25T12:07:42.333Z,3.90
2023-05-25T12:08:43.796Z,3.90
2023-05-25T12:09:46.006Z,4.32
2023-05-25T12:10:52.101Z,4.40
2023-05-25T12:11:54.275Z,4.10
2023-05-25T12:12:58.741Z,4.13
2023-05-25T12:14:02.090Z,3.58
2023-05-25T12:15:03.843Z,4.57
2023-05-25T12:16:05.687Z,3.45
2023-05-25T12:17:07.409Z,4.18
2023-05-25T12:18:09.343Z,3.75
2023-05-25T12:19:12.075Z,3.88
2023-05-25T12:20:15.384Z,3.53
2023-05-25T12:21:17.562Z,3.92
2023-05-25T12:22:19.302Z,4.10
2023-05-25T12:23:21.582Z,4.18
2023-05-25T12:24:23.270Z,4.28
2023-05-25T12:25:24.959Z,3.72
2023-05-25T12:26:28.559Z,3.65
2023-05-25T12:27:29.999Z,3.72
2023-05-25T12:28:32.059Z,3.50
2023-05-25T12:29:46.528Z,4.22
2023-05-25T12:30:49.361Z,3.60
2023-05-25T12:31:50.980Z,3.67
2023-05-25T12:33:03.813Z,3.50
2023-05-25T12:34:14.239Z,3.80
2023-05-25T12:35:15.702Z,3.90
2023-05-25T12:36:18.022Z,3.45
2023-05-25T12:37:22.799Z,3.95
2023-05-25T12:38:24.447Z,3.75
2023-05-25T12:39:31.859Z,3.47
2023-05-25T12:40:33.312Z,4.25
2023-05-25T12:41:55.010Z,3.72
2023-05-25T12:42:57.595Z,4.00
2023-05-25T12:43:59.534Z,4.30
2023-05-25T12:45:01.907Z,4.20
2023-05-25T12:46:03.555Z,4.85
2023-05-25T12:47:20.910Z,4.38
2023-05-25T12:48:28.511Z,3.83
2023-05-25T12:49:32.230Z,3.92
2023-05-25T12:50:34.489Z,4.00
2023-05-25T12:51:39.628Z,3.40
2023-05-25T12:52:46.637Z,3.88
2023-05-25T12:53:52.285Z,4.05
2023-05-25T12:54:53.798Z,5.57
2023-05-25T12:56:04.691Z,4.35
2023-05-25T12:57:07.892Z,3.47
2023-05-25T12:58:27.360Z,3.53
2023-05-25T12:59:31.284Z,4.03
2023-05-25T13:00:33.683Z,4.10
2023-05-25T13:01:35.597Z,4.18
2023-05-25T13:02:37.275Z,3.75
2023-05-25T13:03:38.844Z,4.35
2023-05-25T13:04:42.048Z,4.25
2023-05-25T13:05:44.245Z,4.72
2023-05-25T13:06:45.803Z,3.88
2023-05-25T13:07:48.058Z,4.70
2023-05-25T13:08:49.770Z,4.32
2023-05-25T13:09:51.444Z,4.47
2023-05-25T13:10:53.406Z,4.43
2023-05-25T13:11:56.251Z,4.45
2023-05-25T13:12:58.552Z,4.30
2023-05-25T13:14:01.835Z,4.05
2023-05-25T13:15:03.762Z,3.85
2023-05-25T13:16:05.481Z,3.75
2023-05-25T13:17:07.047Z,4.18
2023-05-25T13:18:12.059Z,3.85
2023-05-25T13:19:13.561Z,4.25
2023-05-25T13:20:16.545Z,4.15
2023-05-25T13:21:18.063Z,3.88
2023-05-25T13:22:19.728Z,4.53
2023-05-25T13:23:22.404Z,4.15
2023-05-25T13:24:24.703Z,4.65
2023-05-25T13:25:27.787Z,3.80
2023-05-25T13:26:29.665Z,4.00
2023-05-25T13:27:31.788Z,4.45
2023-05-25T13:28:33.384Z,4.38
2023-05-25T13:29:34.785Z,4.60
2023-05-25T13:30:36.867Z,3.83
2023-05-25T13:31:38.715Z,5.20
2023-05-25T13:32:40.515Z,4.15
2023-05-25T13:33:42.331Z,4.00
2023-05-25T13:34:44.094Z,4.28
2023-05-25T13:35:58.146Z,4.13
2023-05-25T13:37:00.363Z,4.35
2023-05-25T13:38:01.898Z,4.20
2023-05-25T13:39:05.260Z,4.35
2023-05-25T13:40:07.485Z,4.38
2023-05-25T13:41:08.996Z,4.05
2023-05-25T13:42:10.481Z,4.13
2023-05-25T13:43:11.973Z,4.78
2023-05-25T13:44:16.582Z,4.68
2023-05-25T13:45:19.146Z,5.38
2023-05-25T13:46:33.496Z,4.50
2023-05-25T13:47:36.070Z,6.55
2023-05-25T13:48:37.964Z,4.10
2023-05-25T13:49:39.561Z,4.20
2023-05-25T13:50:41.082Z,3.95
2023-05-25T13:51:42.643Z,4.50
2023-05-25T13:52:44.299Z,4.00
2023-05-25T13:53:46.368Z,3.95
2023-05-25T13:54:48.431Z,3.97
2023-05-25T13:55:50.100Z,5.60
2023-05-25T13:56:51.981Z,4.25
2023-05-25T13:57:53.908Z,3.58
2023-05-25T13:58:55.448Z,4.70
2023-05-25T13:59:56.889Z,4.40
2023-05-25T14:00:58.511Z,4.10
2023-05-25T14:02:01.481Z,4.20
2023-05-25T14:03:03.212Z,3.83
2023-05-25T14:04:05.581Z,4.13
2023-05-25T14:05:07.371Z,4.32
2023-05-25T14:06:08.845Z,3.72
2023-05-25T14:07:10.954Z,3.88
2023-05-25T14:08:13.850Z,3.63
2023-05-25T14:09:16.173Z,3.47
2023-05-25T14:10:17.918Z,4.20
2023-05-25T14:11:26.780Z,4.57
2023-05-25T14:12:29.801Z,3.90
2023-05-25T14:13:31.267Z,3.70
2023-05-25T14:14:33.135Z,4.35
2023-05-25T14:15:35.072Z,3.78
2023-05-25T14:16:37.660Z,4.30